sensor_id;sensor_type;location;lat;lon;timestamp;pressure;altitude;pressure_sealevel;temperature;humidity
36386;BME280;24125;47.482;8.770;2023-05-24T00:00:59;96363.03;;;17.90;80.13
36386;BME280;24125;47.482;8.770;2023-05-24T00:03:34;96352.22;;;17.87;79.93
36386;BME280;24125;47.482;8.770;2023-05-24T00:06:09;96352.16;;;17.83;79.95
36386;BME280;24125;47.482;8.770;2023-05-24T00:08:42;96359.88;;;17.81;80.13
36386;BME280;24125;47.482;8.770;2023-05-24T00:11:15;96355.19;;;17.78;80.16
36386;BME280;24125;47.482;8.770;2023-05-24T00:13:48;96353.22;;;17.75;80.16
36386;BME280;24125;47.482;8.770;2023-05-24T00:16:21;96357.44;;;17.73;80.09
36386;BME280;24125;47.482;8.770;2023-05-24T00:18:56;96357.81;;;17.71;80.17
36386;BME280;24125;47.482;8.770;2023-05-24T00:21:29;96352.34;;;17.67;80.24
36386;BME280;24125;47.482;8.770;2023-05-24T00:24:02;96358.09;;;17.66;80.09
36386;BME280;24125;47.482;8.770;2023-05-24T00:26:35;96358.06;;;17.62;80.13
36386;BME280;24125;47.482;8.770;2023-05-24T00:29:08;96359.19;;;17.61;80.62
36386;BME280;24125;47.482;8.770;2023-05-24T00:31:41;96356.84;;;17.60;80.04
36386;BME280;24125;47.482;8.770;2023-05-24T00:34:15;96350.66;;;17.59;80.46
36386;BME280;24125;47.482;8.770;2023-05-24T00:36:48;96354.50;;;17.58;80.41
36386;BME280;24125;47.482;8.770;2023-05-24T00:39:21;96346.00;;;17.56;80.57
36386;BME280;24125;47.482;8.770;2023-05-24T00:41:54;96346.00;;;17.56;80.37
36386;BME280;24125;47.482;8.770;2023-05-24T00:44:27;96345.59;;;17.54;80.41
36386;BME280;24125;47.482;8.770;2023-05-24T00:47:00;96347.16;;;17.55;80.39
36386;BME280;24125;47.482;8.770;2023-05-24T00:49:35;96348.31;;;17.54;80.71
36386;BME280;24125;47.482;8.770;2023-05-24T00:52:08;96349.44;;;17.53;80.75
36386;BME280;24125;47.482;8.770;2023-05-24T00:54:41;96344.81;;;17.54;80.91
36386;BME280;24125;47.482;8.770;2023-05-24T00:57:14;96345.59;;;17.54;80.93
36386;BME280;24125;47.482;8.770;2023-05-24T00:59:50;96343.28;;;17.56;81.05
36386;BME280;24125;47.482;8.770;2023-05-24T01:02:22;96344.06;;;17.57;80.85
36386;BME280;24125;47.482;8.770;2023-05-24T01:04:57;96340.22;;;17.58;80.91
36386;BME280;24125;47.482;8.770;2023-05-24T01:07:32;96344.13;;;17.60;81.14
36386;BME280;24125;47.482;8.770;2023-05-24T01:10:12;96340.28;;;17.61;81.15
36386;BME280;24125;47.482;8.770;2023-05-24T01:12:49;96342.66;;;17.63;81.25
36386;BME280;24125;47.482;8.770;2023-05-24T01:15:27;96340.34;;;17.65;81.23
36386;BME280;24125;47.482;8.770;2023-05-24T01:18:04;96338.44;;;17.65;81.50
36386;BME280;24125;47.482;8.770;2023-05-24T01:20:39;96346.59;;;17.69;81.41
36386;BME280;24125;47.482;8.770;2023-05-24T01:23:16;96337.34;;;17.70;81.60
36386;BME280;24125;47.482;8.770;2023-05-24T01:26:03;96333.50;;;17.71;81.46
36386;BME280;24125;47.482;8.770;2023-05-24T01:28:42;96337.38;;;17.73;81.65
36386;BME280;24125;47.482;8.770;2023-05-24T01:31:15;96337.78;;;17.76;81.66
36386;BME280;24125;47.482;8.770;2023-05-24T01:33:49;96337.44;;;17.77;81.65
36386;BME280;24125;47.482;8.770;2023-05-24T01:36:23;96331.66;;;17.79;81.46
36386;BME280;24125;47.482;8.770;2023-05-24T01:38:55;96340.97;;;17.81;81.49
36386;BME280;24125;47.482;8.770;2023-05-24T01:41:31;96336.69;;;17.80;81.53
36386;BME280;24125;47.482;8.770;2023-05-24T01:44:12;96342.50;;;17.82;81.10
36386;BME280;24125;47.482;8.770;2023-05-24T01:46:49;96339.41;;;17.80;80.90
36386;BME280;24125;47.482;8.770;2023-05-24T01:49:25;96329.75;;;17.79;80.57
36386;BME280;24125;47.482;8.770;2023-05-24T01:52:02;96337.44;;;17.77;80.39
36386;BME280;24125;47.482;8.770;2023-05-24T01:54:37;96335.44;;;17.74;80.07
36386;BME280;24125;47.482;8.770;2023-05-24T01:57:11;96338.47;;;17.69;80.18
36386;BME280;24125;47.482;8.770;2023-05-24T01:59:45;96337.28;;;17.66;80.18
36386;BME280;24125;47.482;8.770;2023-05-24T02:02:19;96341.09;;;17.62;80.02
36386;BME280;24125;47.482;8.770;2023-05-24T02:04:52;96332.91;;;17.58;80.04
36386;BME280;24125;47.482;8.770;2023-05-24T02:07:25;96331.31;;;17.54;79.87
36386;BME280;24125;47.482;8.770;2023-05-24T02:09:58;96337.81;;;17.49;79.80
36386;BME280;24125;47.482;8.770;2023-05-24T02:12:31;96335.84;;;17.46;79.71
36386;BME280;24125;47.482;8.770;2023-05-24T02:15:06;96336.56;;;17.43;80.11
36386;BME280;24125;47.482;8.770;2023-05-24T02:17:39;96333.03;;;17.39;80.08
36386;BME280;24125;47.482;8.770;2023-05-24T02:20:13;96331.09;;;17.36;80.23
36386;BME280;24125;47.482;8.770;2023-05-24T02:22:47;96333.72;;;17.32;80.31
36386;BME280;24125;47.482;8.770;2023-05-24T02:25:20;96323.69;;;17.29;80.34
36386;BME280;24125;47.482;8.770;2023-05-24T02:27:53;96330.22;;;17.28;80.17
36386;BME280;24125;47.482;8.770;2023-05-24T02:30:28;96328.66;;;17.27;80.14
36386;BME280;24125;47.482;8.770;2023-05-24T02:33:01;96324.34;;;17.23;80.05
36386;BME280;24125;47.482;8.770;2023-05-24T02:35:34;96328.56;;;17.20;79.63
36386;BME280;24125;47.482;8.770;2023-05-24T02:38:06;96321.53;;;17.16;79.62
36386;BME280;24125;47.482;8.770;2023-05-24T02:40:40;96325.34;;;17.11;79.21
36386;BME280;24125;47.482;8.770;2023-05-24T02:43:13;96324.47;;;17.04;79.19
36386;BME280;24125;47.482;8.770;2023-05-24T02:45:47;96318.53;;;16.94;79.20
36386;BME280;24125;47.482;8.770;2023-05-24T02:48:21;96317.63;;;16.87;79.34
36386;BME280;24125;47.482;8.770;2023-05-24T02:50:54;96317.88;;;16.78;79.79
36386;BME280;24125;47.482;8.770;2023-05-24T02:53:27;96316.22;;;16.70;79.98
36386;BME280;24125;47.482;8.770;2023-05-24T02:56:02;96325.38;;;16.66;80.13
36386;BME280;24125;47.482;8.770;2023-05-24T02:58:34;96324.53;;;16.62;80.16
36386;BME280;24125;47.482;8.770;2023-05-24T03:01:12;96324.81;;;16.56;80.48
36386;BME280;24125;47.482;8.770;2023-05-24T03:03:45;96323.19;;;16.52;80.64
36386;BME280;24125;47.482;8.770;2023-05-24T03:06:19;96327.34;;;16.46;80.64
36386;BME280;24125;47.482;8.770;2023-05-24T03:08:54;96317.28;;;16.43;80.59
36386;BME280;24125;47.482;8.770;2023-05-24T03:11:27;96321.47;;;16.40;81.05
36386;BME280;24125;47.482;8.770;2023-05-24T03:14:00;96324.88;;;16.37;80.86
36386;BME280;24125;47.482;8.770;2023-05-24T03:16:34;96322.13;;;16.34;80.92
36386;BME280;24125;47.482;8.770;2023-05-24T03:19:07;96317.44;;;16.31;81.14
36386;BME280;24125;47.482;8.770;2023-05-24T03:21:40;96318.94;;;16.28;80.77
36386;BME280;24125;47.482;8.770;2023-05-24T03:24:14;96327.38;;;16.27;80.93
36386;BME280;24125;47.482;8.770;2023-05-24T03:26:46;96331.94;;;16.22;81.08
36386;BME280;24125;47.482;8.770;2023-05-24T03:29:20;96330.00;;;16.23;81.14
36386;BME280;24125;47.482;8.770;2023-05-24T03:31:55;96331.50;;;16.20;81.16
36386;BME280;24125;47.482;8.770;2023-05-24T03:34:28;96326.81;;;16.17;81.30
36386;BME280;24125;47.482;8.770;2023-05-24T03:37:02;96324.84;;;16.14;81.50
36386;BME280;24125;47.482;8.770;2023-05-24T03:39:36;96330.59;;;16.13;81.58
36386;BME280;24125;47.482;8.770;2023-05-24T03:42:09;96333.28;;;16.13;81.46
36386;BME280;24125;47.482;8.770;2023-05-24T03:44:42;96342.06;;;16.10;81.39
36386;BME280;24125;47.482;8.770;2023-05-24T03:47:16;96343.59;;;16.07;81.69
36386;BME280;24125;47.482;8.770;2023-05-24T03:49:49;96345.50;;;16.07;82.04
36386;BME280;24125;47.482;8.770;2023-05-24T03:52:22;96346.28;;;16.07;82.34
36386;BME280;24125;47.482;8.770;2023-05-24T03:54:56;96339.31;;;16.06;82.06
36386;BME280;24125;47.482;8.770;2023-05-24T03:57:29;96341.25;;;16.06;82.01
36386;BME280;24125;47.482;8.770;2023-05-24T04:00:03;96340.09;;;16.07;82.13
36386;BME280;24125;47.482;8.770;2023-05-24T04:02:41;96343.19;;;16.09;82.29
36386;BME280;24125;47.482;8.770;2023-05-24T04:05:14;96333.22;;;16.09;82.11
36386;BME280;24125;47.482;8.770;2023-05-24T04:07:47;96340.88;;;16.07;82.26
36386;BME280;24125;47.482;8.770;2023-05-24T04:10:20;96337.06;;;16.08;82.10
36386;BME280;24125;47.482;8.770;2023-05-24T04:12:54;96331.69;;;16.08;82.43
36386;BME280;24125;47.482;8.770;2023-05-24T04:15:28;96333.22;;;16.09;82.18
36386;BME280;24125;47.482;8.770;2023-05-24T04:18:02;96336.69;;;16.10;82.53
36386;BME280;24125;47.482;8.770;2023-05-24T04:20:35;96333.22;;;16.09;82.32
36386;BME280;24125;47.482;8.770;2023-05-24T04:23:09;96337.13;;;16.12;82.43
36386;BME280;24125;47.482;8.770;2023-05-24T04:25:43;96339.03;;;16.11;82.49
36386;BME280;24125;47.482;8.770;2023-05-24T04:28:16;96338.69;;;16.13;82.58
36386;BME280;24125;47.482;8.770;2023-05-24T04:30:49;96327.13;;;16.12;82.56
36386;BME280;24125;47.482;8.770;2023-05-24T04:33:24;96327.91;;;16.13;82.35
36386;BME280;24125;47.482;8.770;2023-05-24T04:35:58;96322.50;;;16.13;81.90
36386;BME280;24125;47.482;8.770;2023-05-24T04:38:32;96325.56;;;16.11;82.29
36386;BME280;24125;47.482;8.770;2023-05-24T04:41:06;96335.56;;;16.11;82.31
36386;BME280;24125;47.482;8.770;2023-05-24T04:43:39;96325.91;;;16.10;82.30
36386;BME280;24125;47.482;8.770;2023-05-24T04:46:14;96334.78;;;16.10;82.69
36386;BME280;24125;47.482;8.770;2023-05-24T04:48:49;96331.72;;;16.12;82.98
36386;BME280;24125;47.482;8.770;2023-05-24T04:51:22;96334.50;;;16.15;82.97
36386;BME280;24125;47.482;8.770;2023-05-24T04:53:55;96330.66;;;16.16;82.99
36386;BME280;24125;47.482;8.770;2023-05-24T04:56:28;96338.38;;;16.18;83.00
36386;BME280;24125;47.482;8.770;2023-05-24T04:59:01;96336.53;;;16.22;82.81
36386;BME280;24125;47.482;8.770;2023-05-24T05:01:34;96341.56;;;16.23;82.96
36386;BME280;24125;47.482;8.770;2023-05-24T05:04:09;96345.44;;;16.26;82.98
36386;BME280;24125;47.482;8.770;2023-05-24T05:06:42;96348.91;;;16.27;82.78
36386;BME280;24125;47.482;8.770;2023-05-24T05:09:15;96353.97;;;16.28;83.04
36386;BME280;24125;47.482;8.770;2023-05-24T05:11:49;96354.75;;;16.29;82.90
36386;BME280;24125;47.482;8.770;2023-05-24T05:14:22;96354.38;;;16.30;82.40
36386;BME280;24125;47.482;8.770;2023-05-24T05:16:55;96357.88;;;16.31;82.81
36386;BME280;24125;47.482;8.770;2023-05-24T05:19:31;96361.34;;;16.31;82.57
36386;BME280;24125;47.482;8.770;2023-05-24T05:22:04;96365.16;;;16.30;82.50
36386;BME280;24125;47.482;8.770;2023-05-24T05:24:37;96362.81;;;16.29;82.41
36386;BME280;24125;47.482;8.770;2023-05-24T05:27:10;96366.28;;;16.29;82.01
36386;BME280;24125;47.482;8.770;2023-05-24T05:29:43;96367.78;;;16.27;81.77
36386;BME280;24125;47.482;8.770;2023-05-24T05:32:16;96367.38;;;16.25;81.74
36386;BME280;24125;47.482;8.770;2023-05-24T05:34:51;96370.78;;;16.21;81.54
36386;BME280;24125;47.482;8.770;2023-05-24T05:37:23;96367.22;;;16.17;81.55
36386;BME280;24125;47.482;8.770;2023-05-24T05:39:56;96362.56;;;16.14;81.22
36386;BME280;24125;47.482;8.770;2023-05-24T05:42:29;96367.09;;;16.10;81.30
36386;BME280;24125;47.482;8.770;2023-05-24T05:45:03;96368.22;;;16.09;81.86
36386;BME280;24125;47.482;8.770;2023-05-24T05:47:36;96372.44;;;16.07;81.56
36386;BME280;24125;47.482;8.770;2023-05-24T05:50:10;96362.34;;;16.04;81.57
36386;BME280;24125;47.482;8.770;2023-05-24T05:52:43;96371.56;;;16.03;81.74
36386;BME280;24125;47.482;8.770;2023-05-24T05:55:16;96371.91;;;16.01;81.92
36386;BME280;24125;47.482;8.770;2023-05-24T05:57:51;96371.91;;;16.01;81.88
36386;BME280;24125;47.482;8.770;2023-05-24T06:00:24;96371.91;;;16.01;82.19
36386;BME280;24125;47.482;8.770;2023-05-24T06:02:57;96372.69;;;16.02;82.16
36386;BME280;24125;47.482;8.770;2023-05-24T06:05:32;96373.91;;;16.04;82.25
36386;BME280;24125;47.482;8.770;2023-05-24T06:08:08;96385.09;;;16.06;82.33
36386;BME280;24125;47.482;8.770;2023-05-24T06:10:41;96383.59;;;16.09;82.60
36386;BME280;24125;47.482;8.770;2023-05-24T06:13:15;96386.28;;;16.09;82.40
36386;BME280;24125;47.482;8.770;2023-05-24T06:15:47;96391.31;;;16.10;82.50
36386;BME280;24125;47.482;8.770;2023-05-24T06:18:23;96381.78;;;16.13;82.45
36386;BME280;24125;47.482;8.770;2023-05-24T06:20:58;96381.41;;;16.14;82.46
36386;BME280;24125;47.482;8.770;2023-05-24T06:23:32;96381.84;;;16.16;82.89
36386;BME280;24125;47.482;8.770;2023-05-24T06:26:05;96386.50;;;16.19;82.86
36386;BME280;24125;47.482;8.770;2023-05-24T06:28:40;96382.34;;;16.22;82.79
36386;BME280;24125;47.482;8.770;2023-05-24T06:41:46;96380.41;;;16.42;83.54
36386;BME280;24125;47.482;8.770;2023-05-24T06:44:21;96383.91;;;16.46;83.41
36386;BME280;24125;47.482;8.770;2023-05-24T06:47:01;96387.13;;;16.51;83.82
36386;BME280;24125;47.482;8.770;2023-05-24T06:49:34;96388.38;;;16.57;83.58
36386;BME280;24125;47.482;8.770;2023-05-24T06:52:07;96387.31;;;16.62;83.64
36386;BME280;24125;47.482;8.770;2023-05-24T06:54:41;96398.22;;;16.69;84.01
36386;BME280;24125;47.482;8.770;2023-05-24T06:57:15;96394.88;;;16.76;84.14
36386;BME280;24125;47.482;8.770;2023-05-24T06:59:48;96403.09;;;16.83;83.82
36386;BME280;24125;47.482;8.770;2023-05-24T07:02:21;96400.09;;;16.88;83.37
36386;BME280;24125;47.482;8.770;2023-05-24T07:04:58;96400.16;;;16.91;83.59
36386;BME280;24125;47.482;8.770;2023-05-24T07:07:31;96406.00;;;16.97;83.44
36386;BME280;24125;47.482;8.770;2023-05-24T07:10:05;96405.38;;;17.04;83.70
36386;BME280;24125;47.482;8.770;2023-05-24T07:12:40;96399.66;;;17.09;83.61
36386;BME280;24125;47.482;8.770;2023-05-24T07:15:13;96406.72;;;17.17;83.89
36386;BME280;24125;47.482;8.770;2023-05-24T07:17:46;96415.28;;;17.22;83.62
36386;BME280;24125;47.482;8.770;2023-05-24T07:20:19;96413.13;;;17.31;83.63
36386;BME280;24125;47.482;8.770;2023-05-24T07:22:52;96412.47;;;17.38;83.73
36386;BME280;24125;47.482;8.770;2023-05-24T07:25:25;96414.47;;;17.45;83.95
36386;BME280;24125;47.482;8.770;2023-05-24T07:28:00;96428.50;;;17.54;82.59
36386;BME280;24125;47.482;8.770;2023-05-24T07:30:33;96416.59;;;17.58;82.43
36386;BME280;24125;47.482;8.770;2023-05-24T07:33:06;96418.25;;;17.63;81.85
36386;BME280;24125;47.482;8.770;2023-05-24T07:35:39;96421.34;;;17.65;82.20
36386;BME280;24125;47.482;8.770;2023-05-24T07:38:12;96424.09;;;17.68;81.95
36386;BME280;24125;47.482;8.770;2023-05-24T07:40:46;96420.69;;;17.71;82.27
36386;BME280;24125;47.482;8.770;2023-05-24T07:43:21;96419.16;;;17.74;82.19
36386;BME280;24125;47.482;8.770;2023-05-24T07:45:53;96420.41;;;17.80;82.69
36386;BME280;24125;47.482;8.770;2023-05-24T07:48:26;96419.66;;;17.83;82.38
36386;BME280;24125;47.482;8.770;2023-05-24T07:50:59;96425.13;;;17.87;82.13
36386;BME280;24125;47.482;8.770;2023-05-24T07:53:32;96414.75;;;17.89;82.12
36386;BME280;24125;47.482;8.770;2023-05-24T07:56:06;96419.00;;;17.90;81.67
36386;BME280;24125;47.482;8.770;2023-05-24T07:58:41;96420.94;;;17.89;80.96
36386;BME280;24125;47.482;8.770;2023-05-24T08:01:17;96422.44;;;17.87;80.76
36386;BME280;24125;47.482;8.770;2023-05-24T08:03:50;96435.50;;;17.85;80.68
36386;BME280;24125;47.482;8.770;2023-05-24T08:06:23;96431.59;;;17.82;80.90
36386;BME280;24125;47.482;8.770;2023-05-24T08:08:56;96430.00;;;17.78;80.61
36386;BME280;24125;47.482;8.770;2023-05-24T08:11:29;96428.81;;;17.75;80.63
36386;BME280;24125;47.482;8.770;2023-05-24T08:14:04;96428.41;;;17.73;80.98
36386;BME280;24125;47.482;8.770;2023-05-24T08:16:36;96430.34;;;17.73;81.15
36386;BME280;24125;47.482;8.770;2023-05-24T08:19:09;96433.03;;;17.73;80.99
36386;BME280;24125;47.482;8.770;2023-05-24T08:21:42;96429.94;;;17.70;81.02
36386;BME280;24125;47.482;8.770;2023-05-24T08:24:15;96439.94;;;17.70;80.93
36386;BME280;24125;47.482;8.770;2023-05-24T08:26:48;96434.91;;;17.68;80.91
36386;BME280;24125;47.482;8.770;2023-05-24T08:29:23;96429.16;;;17.70;81.05
36386;BME280;24125;47.482;8.770;2023-05-24T08:31:56;96440.72;;;17.70;81.03
36386;BME280;24125;47.482;8.770;2023-05-24T08:34:29;96429.94;;;17.70;81.18
36386;BME280;24125;47.482;8.770;2023-05-24T08:37:02;96429.94;;;17.70;81.08
36386;BME280;24125;47.482;8.770;2023-05-24T08:39:35;96434.53;;;17.70;80.48
36386;BME280;24125;47.482;8.770;2023-05-24T08:42:08;96433.69;;;17.66;79.82
36386;BME280;24125;47.482;8.770;2023-05-24T08:44:44;96433.22;;;17.60;79.02
36386;BME280;24125;47.482;8.770;2023-05-24T08:47:19;96433.94;;;17.57;78.91
36386;BME280;24125;47.482;8.770;2023-05-24T08:49:51;96436.53;;;17.50;78.64
36386;BME280;24125;47.482;8.770;2023-05-24T08:52:25;96442.25;;;17.45;79.47
36386;BME280;24125;47.482;8.770;2023-05-24T08:54:59;96452.56;;;17.40;79.31
36386;BME280;24125;47.482;8.770;2023-05-24T08:57:32;96441.72;;;17.36;79.46
36386;BME280;24125;47.482;8.770;2023-05-24T09:00:09;96450.88;;;17.31;79.51
36386;BME280;24125;47.482;8.770;2023-05-24T09:02:44;96451.22;;;17.26;79.21
36386;BME280;24125;47.482;8.770;2023-05-24T09:05:17;96456.13;;;17.21;79.36
36386;BME280;24125;47.482;8.770;2023-05-24T09:07:52;96453.72;;;17.16;78.65
36386;BME280;24125;47.482;8.770;2023-05-24T09:10:27;96464.84;;;17.11;78.44
36386;BME280;24125;47.482;8.770;2023-05-24T09:13:20;96450.84;;;17.05;78.08
36386;BME280;24125;47.482;8.770;2023-05-24T09:15:55;96455.84;;;17.03;78.86
36386;BME280;24125;47.482;8.770;2023-05-24T09:18:29;96451.16;;;17.00;79.31
36386;BME280;24125;47.482;8.770;2023-05-24T09:21:02;96448.47;;;17.00;80.00
36386;BME280;24125;47.482;8.770;2023-05-24T09:23:34;96455.06;;;17.03;78.65
36386;BME280;24125;47.482;8.770;2023-05-24T09:26:08;96459.00;;;17.09;79.86
36386;BME280;24125;47.482;8.770;2023-05-24T09:28:41;96454.84;;;17.15;80.34
36386;BME280;24125;47.482;8.770;2023-05-24T09:31:16;96452.66;;;17.20;80.58
36386;BME280;24125;47.482;8.770;2023-05-24T09:33:49;96463.13;;;17.25;80.56
36386;BME280;24125;47.482;8.770;2023-05-24T09:36:21;96463.66;;;17.34;81.48
36386;BME280;24125;47.482;8.770;2023-05-24T09:39:03;96473.06;;;17.44;81.01
36386;BME280;24125;47.482;8.770;2023-05-24T09:41:38;96464.72;;;17.53;81.36
36386;BME280;24125;47.482;8.770;2023-05-24T09:44:11;96465.28;;;17.62;81.62
36386;BME280;24125;47.482;8.770;2023-05-24T09:46:46;96465.81;;;17.71;81.36
36386;BME280;24125;47.482;8.770;2023-05-24T09:49:19;96473.66;;;17.80;81.19
36386;BME280;24125;47.482;8.770;2023-05-24T09:51:52;96472.97;;;17.86;80.61
36386;BME280;24125;47.482;8.770;2023-05-24T09:54:26;96475.34;;;17.91;80.38
36386;BME280;24125;47.482;8.770;2023-05-24T09:56:59;96470.41;;;17.97;80.61
36386;BME280;24125;47.482;8.770;2023-05-24T09:59:38;96472.38;;;18.00;80.86
36386;BME280;24125;47.482;8.770;2023-05-24T10:02:12;96472.78;;;18.02;79.87
36386;BME280;24125;47.482;8.770;2023-05-24T10:04:49;96471.66;;;18.03;80.22
36386;BME280;24125;47.482;8.770;2023-05-24T10:07:28;96477.03;;;18.03;80.16
36386;BME280;24125;47.482;8.770;2023-05-24T10:10:02;96467.81;;;18.04;79.99
36386;BME280;24125;47.482;8.770;2023-05-24T10:12:37;96479.03;;;18.06;79.81
36386;BME280;24125;47.482;8.770;2023-05-24T10:15:14;96476.72;;;18.08;80.06
36386;BME280;24125;47.482;8.770;2023-05-24T10:17:48;96478.69;;;18.11;81.17
36386;BME280;24125;47.482;8.770;2023-05-24T10:20:22;96482.25;;;18.15;80.59
36386;BME280;24125;47.482;8.770;2023-05-24T10:22:58;96476.84;;;18.15;80.69
36386;BME280;24125;47.482;8.770;2023-05-24T10:25:31;96481.47;;;18.18;80.97
36386;BME280;24125;47.482;8.770;2023-05-24T10:28:05;96467.19;;;18.18;80.11
36386;BME280;24125;47.482;8.770;2023-05-24T10:30:41;96476.09;;;18.18;79.76
36386;BME280;24125;47.482;8.770;2023-05-24T10:33:17;96476.84;;;18.19;79.49
36386;BME280;24125;47.482;8.770;2023-05-24T10:35:51;96461.78;;;18.18;80.66
36386;BME280;24125;47.482;8.770;2023-05-24T10:38:24;96469.91;;;18.18;80.19
36386;BME280;24125;47.482;8.770;2023-05-24T10:40:57;96475.31;;;18.18;79.79
36386;BME280;24125;47.482;8.770;2023-05-24T10:43:30;96478.78;;;18.18;79.00
36386;BME280;24125;47.482;8.770;2023-05-24T10:46:03;96481.13;;;18.20;79.77
36386;BME280;24125;47.482;8.770;2023-05-24T10:48:38;96481.47;;;18.18;78.25
36386;BME280;24125;47.482;8.770;2023-05-24T10:51:28;96484.97;;;18.19;78.99
36386;BME280;24125;47.482;8.770;2023-05-24T10:54:11;96483.41;;;18.18;78.92
36386;BME280;24125;47.482;8.770;2023-05-24T10:56:45;96479.91;;;18.14;78.25
36386;BME280;24125;47.482;8.770;2023-05-24T11:02:09;96484.53;;;18.13;79.85
36386;BME280;24125;47.482;8.770;2023-05-24T11:04:45;96479.91;;;18.14;79.59
36386;BME280;24125;47.482;8.770;2023-05-24T11:07:19;96483.00;;;18.16;79.84
36386;BME280;24125;47.482;8.770;2023-05-24T11:09:54;96477.66;;;18.19;79.88
36386;BME280;24125;47.482;8.770;2023-05-24T11:12:30;96484.66;;;18.24;79.97
36386;BME280;24125;47.482;8.770;2023-05-24T11:15:09;96482.81;;;18.31;81.52
36386;BME280;24125;47.482;8.770;2023-05-24T11:20:35;96478.00;;;18.47;82.00
36386;BME280;24125;47.482;8.770;2023-05-24T11:23:08;96472.31;;;18.56;81.38
36386;BME280;24125;47.482;8.770;2023-05-24T11:25:41;96472.00;;;18.61;81.08
36386;BME280;24125;47.482;8.770;2023-05-24T11:28:14;96471.34;;;18.71;81.55
36386;BME280;24125;47.482;8.770;2023-05-24T11:30:48;96470.25;;;18.79;82.07
36386;BME280;24125;47.482;8.770;2023-05-24T11:33:21;96474.63;;;18.91;82.03
36386;BME280;24125;47.482;8.770;2023-05-24T11:35:56;96477.03;;;19.00;81.60
36386;BME280;24125;47.482;8.770;2023-05-24T11:38:30;96471.75;;;19.10;82.15
36386;BME280;24125;47.482;8.770;2023-05-24T11:41:03;96472.16;;;19.16;82.09
36386;BME280;24125;47.482;8.770;2023-05-24T11:43:37;96473.38;;;19.22;81.09
36386;BME280;24125;47.482;8.770;2023-05-24T11:46:11;96470.72;;;19.26;81.63
36386;BME280;24125;47.482;8.770;2023-05-24T11:48:52;96459.13;;;19.29;80.73
36386;BME280;24125;47.482;8.770;2023-05-24T11:51:27;96457.63;;;19.35;80.28
36386;BME280;24125;47.482;8.770;2023-05-24T11:54:00;96465.41;;;19.40;80.56
36386;BME280;24125;47.482;8.770;2023-05-24T11:56:33;96454.25;;;19.45;77.89
36386;BME280;24125;47.482;8.770;2023-05-24T11:59:10;96457.03;;;19.52;79.21
36386;BME280;24125;47.482;8.770;2023-05-24T12:01:45;96445.88;;;19.61;80.13
36386;BME280;24125;47.482;8.770;2023-05-24T12:04:18;96449.81;;;19.70;80.43
36386;BME280;24125;47.482;8.770;2023-05-24T12:06:53;96440.56;;;19.78;79.79
36386;BME280;24125;47.482;8.770;2023-05-24T12:09:26;96435.22;;;19.89;81.00
36386;BME280;24125;47.482;8.770;2023-05-24T12:11:59;96446.88;;;20.00;82.32
36386;BME280;24125;47.482;8.770;2023-05-24T12:14:34;96438.00;;;20.10;80.61
36386;BME280;24125;47.482;8.770;2023-05-24T12:17:12;96430.72;;;20.21;82.42
36386;BME280;24125;47.482;8.770;2023-05-24T12:19:47;96438.56;;;20.37;83.13
36386;BME280;24125;47.482;8.770;2023-05-24T12:22:24;96431.22;;;20.52;82.83
36386;BME280;24125;47.482;8.770;2023-05-24T12:24:58;96434.78;;;20.66;81.84
36386;BME280;24125;47.482;8.770;2023-05-24T12:27:30;96436.34;;;20.78;81.47
36386;BME280;24125;47.482;8.770;2023-05-24T12:30:05;96434.81;;;20.91;81.75
36386;BME280;24125;47.482;8.770;2023-05-24T12:32:40;96440.66;;;21.07;81.99
36386;BME280;24125;47.482;8.770;2023-05-24T12:35:13;96432.91;;;21.20;82.53
36386;BME280;24125;47.482;8.770;2023-05-24T12:37:47;96432.94;;;21.34;82.64
36386;BME280;24125;47.482;8.770;2023-05-24T12:40:20;96435.63;;;21.49;83.13
36386;BME280;24125;47.482;8.770;2023-05-24T12:42:54;96441.47;;;21.61;82.92
36386;BME280;24125;47.482;8.770;2023-05-24T12:45:28;96438.31;;;21.73;82.65
36386;BME280;24125;47.482;8.770;2023-05-24T12:48:00;96439.84;;;21.81;80.71
36386;BME280;24125;47.482;8.770;2023-05-24T12:50:35;96433.63;;;21.92;80.91
36386;BME280;24125;47.482;8.770;2023-05-24T12:53:09;96436.34;;;21.99;82.21
36386;BME280;24125;47.482;8.770;2023-05-24T12:55:42;96435.16;;;22.07;75.46
36386;BME280;24125;47.482;8.770;2023-05-24T12:58:15;96432.06;;;22.08;78.05
36386;BME280;24125;47.482;8.770;2023-05-24T13:00:50;96434.78;;;22.12;78.70
36386;BME280;24125;47.482;8.770;2023-05-24T13:03:22;96440.19;;;22.15;80.88
36386;BME280;24125;47.482;8.770;2023-05-24T13:05:56;96432.03;;;22.19;80.19
36386;BME280;24125;47.482;8.770;2023-05-24T13:08:31;96427.31;;;22.23;80.00
36386;BME280;24125;47.482;8.770;2023-05-24T13:11:04;96427.31;;;22.27;80.67
36386;BME280;24125;47.482;8.770;2023-05-24T13:13:37;96418.00;;;22.28;81.16
36386;BME280;24125;47.482;8.770;2023-05-24T13:16:10;96421.50;;;22.28;79.94
36386;BME280;24125;47.482;8.770;2023-05-24T13:18:42;96423.06;;;22.26;78.63
36386;BME280;24125;47.482;8.770;2023-05-24T13:21:16;96426.19;;;22.20;78.28
36386;BME280;24125;47.482;8.770;2023-05-24T13:23:50;96417.28;;;22.13;78.60
36386;BME280;24125;47.482;8.770;2023-05-24T13:26:23;96420.44;;;22.04;77.41
36386;BME280;24125;47.482;8.770;2023-05-24T13:28:56;96414.59;;;21.92;76.66
36386;BME280;24125;47.482;8.770;2023-05-24T13:31:48;96416.19;;;21.75;75.71
36386;BME280;24125;47.482;8.770;2023-05-24T13:34:22;96410.03;;;21.60;74.64
36386;BME280;24125;47.482;8.770;2023-05-24T13:36:55;96412.75;;;21.46;74.72
36386;BME280;24125;47.482;8.770;2023-05-24T13:39:31;96411.97;;;21.31;75.48
36386;BME280;24125;47.482;8.770;2023-05-24T13:42:05;96412.00;;;21.17;75.57
36386;BME280;24125;47.482;8.770;2023-05-24T13:44:39;96406.91;;;21.05;75.43
36386;BME280;24125;47.482;8.770;2023-05-24T13:47:12;96396.44;;;20.89;74.53
36386;BME280;24125;47.482;8.770;2023-05-24T13:49:57;96403.38;;;20.76;75.22
36386;BME280;24125;47.482;8.770;2023-05-24T13:52:30;96402.22;;;20.66;75.05